sensor_id;sensor_type;location;lat;lon;timestamp;temperature;humidity
45868;DHT22;31582;45.490;7.860;2022-10-16T00:01:24;16.00;98.60
45868;DHT22;31582;45.490;7.860;2022-10-16T00:03:51;16.00;98.60
45868;DHT22;31582;45.490;7.860;2022-10-16T00:06:19;16.00;98.60
45868;DHT22;31582;45.490;7.860;2022-10-16T00:08:46;16.00;97.90
45868;DHT22;31582;45.490;7.860;2022-10-16T00:11:14;16.00;96.80
45868;DHT22;31582;45.490;7.860;2022-10-16T00:13:42;16.10;96.00
45868;DHT22;31582;45.490;7.860;2022-10-16T00:16:09;16.10;95.40
45868;DHT22;31582;45.490;7.860;2022-10-16T00:18:37;16.20;94.70
45868;DHT22;31582;45.490;7.860;2022-10-16T00:21:04;16.30;94.20
45868;DHT22;31582;45.490;7.860;2022-10-16T00:23:31;16.30;94.00
45868;DHT22;31582;45.490;7.860;2022-10-16T00:26:00;16.30;93.80
45868;DHT22;31582;45.490;7.860;2022-10-16T00:28:27;16.40;93.20
45868;DHT22;31582;45.490;7.860;2022-10-16T00:30:54;16.40;93.20
45868;DHT22;31582;45.490;7.860;2022-10-16T00:33:21;16.40;93.10
45868;DHT22;31582;45.490;7.860;2022-10-16T00:35:47;16.40;92.90
45868;DHT22;31582;45.490;7.860;2022-10-16T00:38:14;16.40;92.90
45868;DHT22;31582;45.490;7.860;2022-10-16T00:40:41;16.40;92.70
45868;DHT22;31582;45.490;7.860;2022-10-16T00:43:12;16.40;92.80
45868;DHT22;31582;45.490;7.860;2022-10-16T00:45:39;16.40;92.90
45868;DHT22;31582;45.490;7.860;2022-10-16T00:48:07;16.40;93.00
45868;DHT22;31582;45.490;7.860;2022-10-16T00:50:36;16.40;92.80
45868;DHT22;31582;45.490;7.860;2022-10-16T00:53:03;16.40;92.20
45868;DHT22;31582;45.490;7.860;2022-10-16T00:55:30;16.40;92.10
45868;DHT22;31582;45.490;7.860;2022-10-16T00:57:57;16.40;92.10
45868;DHT22;31582;45.490;7.860;2022-10-16T01:00:25;16.50;92.20
45868;DHT22;31582;45.490;7.860;2022-10-16T01:02:56;16.50;91.80
45868;DHT22;31582;45.490;7.860;2022-10-16T01:05:23;16.50;91.50
45868;DHT22;31582;45.490;7.860;2022-10-16T01:10:40;16.50;91.40
45868;DHT22;31582;45.490;7.860;2022-10-16T01:15:55;16.50;91.20
45868;DHT22;31582;45.490;7.860;2022-10-16T01:18:28;16.50;91.20
45868;DHT22;31582;45.490;7.860;2022-10-16T01:21:07;16.50;91.10
45868;DHT22;31582;45.490;7.860;2022-10-16T01:28:52;16.50;91.20
45868;DHT22;31582;45.490;7.860;2022-10-16T01:31:19;16.50;91.20
45868;DHT22;31582;45.490;7.860;2022-10-16T01:36:39;16.40;91.40
45868;DHT22;31582;45.490;7.860;2022-10-16T01:39:08;16.50;91.40
45868;DHT22;31582;45.490;7.860;2022-10-16T01:41:37;16.40;91.30
45868;DHT22;31582;45.490;7.860;2022-10-16T01:44:10;16.40;91.30
45868;DHT22;31582;45.490;7.860;2022-10-16T01:46:39;16.40;91.40
45868;DHT22;31582;45.490;7.860;2022-10-16T01:49:06;16.40;91.70
45868;DHT22;31582;45.490;7.860;2022-10-16T01:51:34;16.40;91.80
45868;DHT22;31582;45.490;7.860;2022-10-16T01:54:02;16.40;91.70
45868;DHT22;31582;45.490;7.860;2022-10-16T01:56:29;16.40;91.60
45868;DHT22;31582;45.490;7.860;2022-10-16T01:58:57;16.50;91.40
45868;DHT22;31582;45.490;7.860;2022-10-16T02:01:26;16.50;91.20
45868;DHT22;31582;45.490;7.860;2022-10-16T02:03:55;16.50;91.10
45868;DHT22;31582;45.490;7.860;2022-10-16T02:06:23;16.50;91.20
45868;DHT22;31582;45.490;7.860;2022-10-16T02:08:51;16.50;91.20
45868;DHT22;31582;45.490;7.860;2022-10-16T02:11:18;16.50;91.20
45868;DHT22;31582;45.490;7.860;2022-10-16T02:13:45;16.50;91.20
45868;DHT22;31582;45.490;7.860;2022-10-16T02:16:13;16.50;91.00
45868;DHT22;31582;45.490;7.860;2022-10-16T02:18:40;16.50;91.40
45868;DHT22;31582;45.490;7.860;2022-10-16T02:26:09;16.50;91.20
45868;DHT22;31582;45.490;7.860;2022-10-16T02:28:45;16.50;91.10
45868;DHT22;31582;45.490;7.860;2022-10-16T02:31:16;16.50;91.20
45868;DHT22;31582;45.490;7.860;2022-10-16T02:33:44;16.50;91.10
45868;DHT22;31582;45.490;7.860;2022-10-16T02:36:12;16.50;91.20
45868;DHT22;31582;45.490;7.860;2022-10-16T02:38:39;16.50;91.50
45868;DHT22;31582;45.490;7.860;2022-10-16T02:41:06;16.50;91.80
45868;DHT22;31582;45.490;7.860;2022-10-16T02:43:33;16.40;92.60
45868;DHT22;31582;45.490;7.860;2022-10-16T02:46:00;16.40;93.10
45868;DHT22;31582;45.490;7.860;2022-10-16T02:48:27;16.40;92.90
45868;DHT22;31582;45.490;7.860;2022-10-16T02:50:54;16.40;93.30
45868;DHT22;31582;45.490;7.860;2022-10-16T02:53:21;16.30;93.70
45868;DHT22;31582;45.490;7.860;2022-10-16T02:55:47;16.30;93.70
45868;DHT22;31582;45.490;7.860;2022-10-16T02:58:14;16.30;93.30
45868;DHT22;31582;45.490;7.860;2022-10-16T03:00:41;16.30;91.90
45868;DHT22;31582;45.490;7.860;2022-10-16T03:03:08;16.30;91.70
45868;DHT22;31582;45.490;7.860;2022-10-16T03:05:35;16.40;92.10
45868;DHT22;31582;45.490;7.860;2022-10-16T03:08:02;16.30;92.80
45868;DHT22;31582;45.490;7.860;2022-10-16T03:10:29;16.30;93.00
45868;DHT22;31582;45.490;7.860;2022-10-16T03:12:55;16.30;92.90
45868;DHT22;31582;45.490;7.860;2022-10-16T03:15:22;16.30;93.00
45868;DHT22;31582;45.490;7.860;2022-10-16T03:17:49;16.30;93.40
45868;DHT22;31582;45.490;7.860;2022-10-16T03:20:16;16.30;93.40
45868;DHT22;31582;45.490;7.860;2022-10-16T03:22:42;16.20;94.40
45868;DHT22;31582;45.490;7.860;2022-10-16T03:25:09;16.10;94.50
45868;DHT22;31582;45.490;7.860;2022-10-16T03:27:36;16.10;95.00
45868;DHT22;31582;45.490;7.860;2022-10-16T03:30:03;16.10;95.20
45868;DHT22;31582;45.490;7.860;2022-10-16T03:32:29;16.00;95.20
45868;DHT22;31582;45.490;7.860;2022-10-16T03:34:56;16.00;95.10
45868;DHT22;31582;45.490;7.860;2022-10-16T03:37:23;16.00;95.20
45868;DHT22;31582;45.490;7.860;2022-10-16T03:39:50;16.00;95.50
45868;DHT22;31582;45.490;7.860;2022-10-16T03:42:17;16.00;95.40
45868;DHT22;31582;45.490;7.860;2022-10-16T03:44:44;15.90;95.00
45868;DHT22;31582;45.490;7.860;2022-10-16T03:47:11;15.90;94.60
45868;DHT22;31582;45.490;7.860;2022-10-16T03:49:38;15.90;94.40
45868;DHT22;31582;45.490;7.860;2022-10-16T03:52:04;15.90;94.50
45868;DHT22;31582;45.490;7.860;2022-10-16T03:54:31;15.90;94.50
45868;DHT22;31582;45.490;7.860;2022-10-16T03:56:58;15.90;94.30
45868;DHT22;31582;45.490;7.860;2022-10-16T03:59:25;15.90;93.90
45868;DHT22;31582;45.490;7.860;2022-10-16T04:01:51;15.90;93.80
45868;DHT22;31582;45.490;7.860;2022-10-16T04:04:18;15.90;93.70
45868;DHT22;31582;45.490;7.860;2022-10-16T04:06:45;15.90;93.60
45868;DHT22;31582;45.490;7.860;2022-10-16T04:09:11;15.80;94.20
45868;DHT22;31582;45.490;7.860;2022-10-16T04:11:38;15.80;95.30
45868;DHT22;31582;45.490;7.860;2022-10-16T04:14:05;15.70;96.60
45868;DHT22;31582;45.490;7.860;2022-10-16T04:16:32;15.60;98.10
45868;DHT22;31582;45.490;7.860;2022-10-16T04:18:59;15.50;99.10
45868;DHT22;31582;45.490;7.860;2022-10-16T04:21:25;15.40;99.40
45868;DHT22;31582;45.490;7.860;2022-10-16T04:23:52;15.40;99.40
45868;DHT22;31582;45.490;7.860;2022-10-16T04:26:19;15.40;99.20
45868;DHT22;31582;45.490;7.860;2022-10-16T04:28:46;15.40;99.00
45868;DHT22;31582;45.490;7.860;2022-10-16T04:31:12;15.40;99.10
45868;DHT22;31582;45.490;7.860;2022-10-16T04:33:41;15.40;98.90
45868;DHT22;31582;45.490;7.860;2022-10-16T04:36:08;15.40;99.20
45868;DHT22;31582;45.490;7.860;2022-10-16T04:38:35;15.40;99.20
45868;DHT22;31582;45.490;7.860;2022-10-16T04:41:03;15.40;99.20
45868;DHT22;31582;45.490;7.860;2022-10-16T04:43:30;15.30;99.70
45868;DHT22;31582;45.490;7.860;2022-10-16T04:45:57;15.20;99.80
45868;DHT22;31582;45.490;7.860;2022-10-16T04:48:24;15.20;99.90
45868;DHT22;31582;45.490;7.860;2022-10-16T04:50:50;15.10;99.90
45868;DHT22;31582;45.490;7.860;2022-10-16T04:53:20;15.10;99.90
45868;DHT22;31582;45.490;7.860;2022-10-16T04:55:47;15.00;99.90
45868;DHT22;31582;45.490;7.860;2022-10-16T04:58:14;15.00;99.90
45868;DHT22;31582;45.490;7.860;2022-10-16T05:00:40;15.10;99.90
45868;DHT22;31582;45.490;7.860;2022-10-16T05:03:07;15.10;99.90
45868;DHT22;31582;45.490;7.860;2022-10-16T05:05:35;15.10;99.90
45868;DHT22;31582;45.490;7.860;2022-10-16T05:08:02;15.20;99.90
45868;DHT22;31582;45.490;7.860;2022-10-16T05:10:29;15.20;99.90
45868;DHT22;31582;45.490;7.860;2022-10-16T05:12:56;15.20;99.90
45868;DHT22;31582;45.490;7.860;2022-10-16T05:15:23;15.20;99.90
45868;DHT22;31582;45.490;7.860;2022-10-16T05:17:54;15.30;99.90
45868;DHT22;31582;45.490;7.860;2022-10-16T05:20:21;15.30;99.90
45868;DHT22;31582;45.490;7.860;2022-10-16T05:22:48;15.40;99.90
45868;DHT22;31582;45.490;7.860;2022-10-16T05:25:15;15.40;99.90
45868;DHT22;31582;45.490;7.860;2022-10-16T05:27:42;15.40;99.90
45868;DHT22;31582;45.490;7.860;2022-10-16T05:30:09;15.40;99.90
45868;DHT22;31582;45.490;7.860;2022-10-16T05:32:38;15.40;99.90
45868;DHT22;31582;45.490;7.860;2022-10-16T05:35:05;15.40;99.90
45868;DHT22;31582;45.490;7.860;2022-10-16T05:37:37;15.40;99.90
45868;DHT22;31582;45.490;7.860;2022-10-16T05:40:04;15.40;99.90
45868;DHT22;31582;45.490;7.860;2022-10-16T05:42:31;15.40;99.90
45868;DHT22;31582;45.490;7.860;2022-10-16T05:44:57;15.40;99.90
45868;DHT22;31582;45.490;7.860;2022-10-16T05:47:24;15.40;99.90
45868;DHT22;31582;45.490;7.860;2022-10-16T05:49:51;15.40;99.90
45868;DHT22;31582;45.490;7.860;2022-10-16T05:52:18;15.40;99.90
45868;DHT22;31582;45.490;7.860;2022-10-16T05:54:44;15.40;99.90
45868;DHT22;31582;45.490;7.860;2022-10-16T05:57:11;15.40;99.90
45868;DHT22;31582;45.490;7.860;2022-10-16T05:59:38;15.30;99.90
45868;DHT22;31582;45.490;7.860;2022-10-16T06:02:05;15.30;99.90
45868;DHT22;31582;45.490;7.860;2022-10-16T06:04:31;15.30;99.90
45868;DHT22;31582;45.490;7.860;2022-10-16T06:06:58;15.30;99.90
45868;DHT22;31582;45.490;7.860;2022-10-16T06:09:26;15.30;99.90
45868;DHT22;31582;45.490;7.860;2022-10-16T06:11:54;15.30;99.90
45868;DHT22;31582;45.490;7.860;2022-10-16T06:14:21;15.20;99.90
45868;DHT22;31582;45.490;7.860;2022-10-16T06:16:47;15.20;99.90
45868;DHT22;31582;45.490;7.860;2022-10-16T06:19:14;15.20;99.90
45868;DHT22;31582;45.490;7.860;2022-10-16T06:21:42;15.20;99.90
45868;DHT22;31582;45.490;7.860;2022-10-16T06:24:09;15.20;99.90
45868;DHT22;31582;45.490;7.860;2022-10-16T06:26:36;15.20;99.90
45868;DHT22;31582;45.490;7.860;2022-10-16T06:29:03;15.20;99.90
45868;DHT22;31582;45.490;7.860;2022-10-16T06:31:30;15.30;99.90
45868;DHT22;31582;45.490;7.860;2022-10-16T06:33:59;15.20;99.90
45868;DHT22;31582;45.490;7.860;2022-10-16T06:36:26;15.30;99.90
45868;DHT22;31582;45.490;7.860;2022-10-16T06:38:53;15.30;99.90
45868;DHT22;31582;45.490;7.860;2022-10-16T06:41:21;15.40;99.90
45868;DHT22;31582;45.490;7.860;2022-10-16T06:43:48;15.40;99.90
45868;DHT22;31582;45.490;7.860;2022-10-16T06:46:16;15.50;99.90
45868;DHT22;31582;45.490;7.860;2022-10-16T06:48:42;15.50;99.90
45868;DHT22;31582;45.490;7.860;2022-10-16T06:51:10;15.50;99.90
45868;DHT22;31582;45.490;7.860;2022-10-16T06:53:39;15.60;99.90
45868;DHT22;31582;45.490;7.860;2022-10-16T06:56:26;15.60;99.90
45868;DHT22;31582;45.490;7.860;2022-10-16T06:58:53;15.70;99.90
45868;DHT22;31582;45.490;7.860;2022-10-16T07:01:21;15.70;99.90
45868;DHT22;31582;45.490;7.860;2022-10-16T07:03:48;15.70;99.90
45868;DHT22;31582;45.490;7.860;2022-10-16T07:06:15;15.70;99.90
45868;DHT22;31582;45.490;7.860;2022-10-16T07:08:43;15.70;99.90
45868;DHT22;31582;45.490;7.860;2022-10-16T07:11:12;15.70;99.90
45868;DHT22;31582;45.490;7.860;2022-10-16T07:13:40;15.80;99.90
45868;DHT22;31582;45.490;7.860;2022-10-16T07:16:14;15.90;99.90
45868;DHT22;31582;45.490;7.860;2022-10-16T07:18:41;15.90;99.90
45868;DHT22;31582;45.490;7.860;2022-10-16T07:21:10;15.90;99.90
45868;DHT22;31582;45.490;7.860;2022-10-16T07:23:37;16.00;99.90
45868;DHT22;31582;45.490;7.860;2022-10-16T07:26:04;16.00;99.90
45868;DHT22;31582;45.490;7.860;2022-10-16T07:28:31;16.10;99.90
45868;DHT22;31582;45.490;7.860;2022-10-16T07:31:02;16.10;99.90
45868;DHT22;31582;45.490;7.860;2022-10-16T07:33:29;16.20;99.90
45868;DHT22;31582;45.490;7.860;2022-10-16T07:35:56;16.30;99.90
45868;DHT22;31582;45.490;7.860;2022-10-16T07:38:22;16.40;99.90
45868;DHT22;31582;45.490;7.860;2022-10-16T07:41:03;16.50;99.90
45868;DHT22;31582;45.490;7.860;2022-10-16T07:43:30;16.50;99.90
45868;DHT22;31582;45.490;7.860;2022-10-16T07:45:57;16.60;99.90
45868;DHT22;31582;45.490;7.860;2022-10-16T07:48:29;16.70;99.90
45868;DHT22;31582;45.490;7.860;2022-10-16T07:50:59;16.90;99.90
45868;DHT22;31582;45.490;7.860;2022-10-16T07:53:26;17.00;99.90
45868;DHT22;31582;45.490;7.860;2022-10-16T07:55:59;17.10;98.90
45868;DHT22;31582;45.490;7.860;2022-10-16T07:58:27;17.20;97.90
45868;DHT22;31582;45.490;7.860;2022-10-16T08:00:54;17.30;97.00
45868;DHT22;31582;45.490;7.860;2022-10-16T08:03:21;17.40;96.60
45868;DHT22;31582;45.490;7.860;2022-10-16T08:05:48;17.60;96.40
45868;DHT22;31582;45.490;7.860;2022-10-16T08:08:16;17.60;93.60
45868;DHT22;31582;45.490;7.860;2022-10-16T08:10:43;17.70;92.10
45868;DHT22;31582;45.490;7.860;2022-10-16T08:13:09;17.80;92.60
45868;DHT22;31582;45.490;7.860;2022-10-16T08:15:36;17.90;92.20
45868;DHT22;31582;45.490;7.860;2022-10-16T08:18:04;18.00;90.50
45868;DHT22;31582;45.490;7.860;2022-10-16T08:20:32;18.10;89.70
45868;DHT22;31582;45.490;7.860;2022-10-16T08:22:59;18.30;85.30
45868;DHT22;31582;45.490;7.860;2022-10-16T08:25:26;18.50;82.50
45868;DHT22;31582;45.490;7.860;2022-10-16T08:27:53;18.70;80.30
45868;DHT22;31582;45.490;7.860;2022-10-16T08:30:20;18.90;79.00
45868;DHT22;31582;45.490;7.860;2022-10-16T08:32:47;19.00;77.20
45868;DHT22;31582;45.490;7.860;2022-10-16T08:35:14;19.00;74.00
45868;DHT22;31582;45.490;7.860;2022-10-16T08:37:41;19.00;75.50
45868;DHT22;31582;45.490;7.860;2022-10-16T08:40:25;19.10;76.30
45868;DHT22;31582;45.490;7.860;2022-10-16T08:48:24;19.10;74.60
45868;DHT22;31582;45.490;7.860;2022-10-16T08:50:53;19.30;73.60
45868;DHT22;31582;45.490;7.860;2022-10-16T08:53:22;19.40;74.60
45868;DHT22;31582;45.490;7.860;2022-10-16T08:55:51;19.40;72.40
45868;DHT22;31582;45.490;7.860;2022-10-16T09:00:46;19.60;71.60
45868;DHT22;31582;45.490;7.860;2022-10-16T09:03:17;19.80;71.90
45868;DHT22;31582;45.490;7.860;2022-10-16T09:06:00;19.90;69.10
45868;DHT22;31582;45.490;7.860;2022-10-16T09:11:18;20.00;68.60
45868;DHT22;31582;45.490;7.860;2022-10-16T09:13:52;20.00;66.80
45868;DHT22;31582;45.490;7.860;2022-10-16T09:16:24;20.10;69.10
45868;DHT22;31582;45.490;7.860;2022-10-16T09:21:36;20.30;67.60
45868;DHT22;31582;45.490;7.860;2022-10-16T09:24:09;20.40;65.20
45868;DHT22;31582;45.490;7.860;2022-10-16T09:26:37;20.50;64.60
45868;DHT22;31582;45.490;7.860;2022-10-16T09:29:05;20.50;63.60
45868;DHT22;31582;45.490;7.860;2022-10-16T09:31:31;20.60;61.80
45868;DHT22;31582;45.490;7.860;2022-10-16T09:33:59;20.90;60.70
45868;DHT22;31582;45.490;7.860;2022-10-16T09:36:27;21.20;60.00
45868;DHT22;31582;45.490;7.860;2022-10-16T09:39:07;21.40;57.20
45868;DHT22;31582;45.490;7.860;2022-10-16T09:41:35;21.50;58.90
45868;DHT22;31582;45.490;7.860;2022-10-16T09:44:03;21.40;59.80
45868;DHT22;31582;45.490;7.860;2022-10-16T09:46:32;21.40;59.10
45868;DHT22;31582;45.490;7.860;2022-10-16T09:51:44;21.40;58.70
45868;DHT22;31582;45.490;7.860;2022-10-16T09:54:13;21.50;59.20
45868;DHT22;31582;45.490;7.860;2022-10-16T09:56:40;21.60;59.50
45868;DHT22;31582;45.490;7.860;2022-10-16T09:59:17;21.60;57.60
45868;DHT22;31582;45.490;7.860;2022-10-16T10:04:10;21.60;56.00
45868;DHT22;31582;45.490;7.860;2022-10-16T10:06:42;21.60;57.20
45868;DHT22;31582;45.490;7.860;2022-10-16T10:14:17;21.30;58.50
45868;DHT22;31582;45.490;7.860;2022-10-16T10:16:44;21.20;57.60
45868;DHT22;31582;45.490;7.860;2022-10-16T10:19:14;21.20;59.00
45868;DHT22;31582;45.490;7.860;2022-10-16T10:21:41;21.30;60.50
45868;DHT22;31582;45.490;7.860;2022-10-16T10:24:15;21.20;60.40
45868;DHT22;31582;45.490;7.860;2022-10-16T10:26:44;21.30;63.60
45868;DHT22;31582;45.490;7.860;2022-10-16T10:31:54;21.40;64.00
45868;DHT22;31582;45.490;7.860;2022-10-16T10:40:36;21.10;66.00
45868;DHT22;31582;45.490;7.860;2022-10-16T10:42:44;21.10;65.00
45868;DHT22;31582;45.490;7.860;2022-10-16T10:45:17;21.10;64.30
45868;DHT22;31582;45.490;7.860;2022-10-16T10:53:11;21.40;63.70
45868;DHT22;31582;45.490;7.860;2022-10-16T11:06:32;21.90;62.10
45868;DHT22;31582;45.490;7.860;2022-10-16T11:09:00;21.90;62.00
45868;DHT22;31582;45.490;7.860;2022-10-16T11:11:35;21.70;63.40
45868;DHT22;31582;45.490;7.860;2022-10-16T11:14:13;21.80;63.40
45868;DHT22;31582;45.490;7.860;2022-10-16T11:22:16;22.10;64.00
45868;DHT22;31582;45.490;7.860;2022-10-16T11:27:17;22.00;64.40
45868;DHT22;31582;45.490;7.860;2022-10-16T11:29:49;22.00;64.30
45868;DHT22;31582;45.490;7.860;2022-10-16T11:32:19;22.10;64.40
45868;DHT22;31582;45.490;7.860;2022-10-16T11:34:48;22.20;65.00
45868;DHT22;31582;45.490;7.860;2022-10-16T11:37:30;22.20;63.80
45868;DHT22;31582;45.490;7.860;2022-10-16T11:39:59;22.20;64.00
45868;DHT22;31582;45.490;7.860;2022-10-16T11:42:36;22.30;62.60
45868;DHT22;31582;45.490;7.860;2022-10-16T11:45:08;22.30;63.30
45868;DHT22;31582;45.490;7.860;2022-10-16T11:47:40;22.10;63.60
45868;DHT22;31582;45.490;7.860;2022-10-16T11:50:30;22.30;64.20
45868;DHT22;31582;45.490;7.860;2022-10-16T11:53:01;22.30;64.00
45868;DHT22;31582;45.490;7.860;2022-10-16T11:55:34;22.50;64.50
45868;DHT22;31582;45.490;7.860;2022-10-16T11:58:05;22.70;64.70
45868;DHT22;31582;45.490;7.860;2022-10-16T12:00:37;22.60;63.40
45868;DHT22;31582;45.490;7.860;2022-10-16T12:03:11;22.40;63.20
45868;DHT22;31582;45.490;7.860;2022-10-16T12:05:56;22.20;62.90
45868;DHT22;31582;45.490;7.860;2022-10-16T12:08:25;22.20;63.90
45868;DHT22;31582;45.490;7.860;2022-10-16T12:10:53;22.20;63.90
45868;DHT22;31582;45.490;7.860;2022-10-16T12:13:35;22.30;64.50
45868;DHT22;31582;45.490;7.860;2022-10-16T12:16:06;22.30;63.10
45868;DHT22;31582;45.490;7.860;2022-10-16T12:18:33;22.30;63.80
45868;DHT22;31582;45.490;7.860;2022-10-16T12:21:03;22.20;64.10
45868;DHT22;31582;45.490;7.860;2022-10-16T12:23:36;22.20;64.40
45868;DHT22;31582;45.490;7.860;2022-10-16T12:26:04;22.10;63.90
45868;DHT22;31582;45.490;7.860;2022-10-16T12:28:32;22.10;64.00
45868;DHT22;31582;45.490;7.860;2022-10-16T12:31:00;22.00;64.30
45868;DHT22;31582;45.490;7.860;2022-10-16T12:33:28;21.90;64.10
45868;DHT22;31582;45.490;7.860;2022-10-16T12:35:56;21.80;65.30
45868;DHT22;31582;45.490;7.860;2022-10-16T12:38:45;21.70;65.20
45868;DHT22;31582;45.490;7.860;2022-10-16T12:41:12;21.70;65.60
45868;DHT22;31582;45.490;7.860;2022-10-16T12:43:49;21.70;64.90
45868;DHT22;31582;45.490;7.860;2022-10-16T12:48:43;21.80;65.00
45868;DHT22;31582;45.490;7.860;2022-10-16T12:56:32;22.10;62.80
45868;DHT22;31582;45.490;7.860;2022-10-16T13:01:40;22.00;62.80
45868;DHT22;31582;45.490;7.860;2022-10-16T13:04:29;22.10;61.70
45868;DHT22;31582;45.490;7.860;2022-10-16T13:15:17;22.50;63.30
45868;DHT22;31582;45.490;7.860;2022-10-16T13:28:07;22.20;63.60
45868;DHT22;31582;45.490;7.860;2022-10-16T13:30:36;22.30;63.50
45868;DHT22;31582;45.490;7.860;2022-10-16T13:35:52;22.20;65.00
45868;DHT22;31582;45.490;7.860;2022-10-16T13:38:23;22.20;65.00
45868;DHT22;31582;45.490;7.860;2022-10-16T13:43:18;22.30;62.90
45868;DHT22;31582;45.490;7.860;2022-10-16T13:45:55;22.40;62.80
45868;DHT22;31582;45.490;7.860;2022-10-16T13:48:22;22.50;62.10
45868;DHT22;31582;45.490;7.860;2022-10-16T13:50:59;22.60;62.20
45868;DHT22;31582;45.490;7.860;2022-10-16T13:53:26;22.60;62.00
45868;DHT22;31582;45.490;7.860;2022-10-16T13:55:53;22.60;62.00
45868;DHT22;31582;45.490;7.860;2022-10-16T13:58:19;22.70;61.80
45868;DHT22;31582;45.490;7.860;2022-10-16T14:00:59;22.60;60.30
45868;DHT22;31582;45.490;7.860;2022-10-16T14:03:27;22.50;61.10
45868;DHT22;31582;45.490;7.860;2022-10-16T14:05:55;22.60;62.00
45868;DHT22;31582;45.490;7.860;2022-10-16T14:08:23;22.70;63.10
45868;DHT22;31582;45.490;7.860;2022-10-16T14:10:51;22.70;61.50
45868;DHT22;31582;45.490;7.860;2022-10-16T14:13:19;22.40;60.50
45868;DHT22;31582;45.490;7.860;2022-10-16T14:15:47;22.30;61.10
45868;DHT22;31582;45.490;7.860;2022-10-16T14:18:17;22.30;62.70
45868;DHT22;31582;45.490;7.860;2022-10-16T14:20:44;22.20;62.60
45868;DHT22;31582;45.490;7.860;2022-10-16T14:23:22;22.20;63.30
45868;DHT22;31582;45.490;7.860;2022-10-16T14:25:49;22.10;63.40
45868;DHT22;31582;45.490;7.860;2022-10-16T14:28:17;22.10;64.20
45868;DHT22;31582;45.490;7.860;2022-10-16T14:30:51;22.00;63.40
45868;DHT22;31582;45.490;7.860;2022-10-16T14:38:27;22.10;63.60
45868;DHT22;31582;45.490;7.860;2022-10-16T14:40:56;21.90;62.50
45868;DHT22;31582;45.490;7.860;2022-10-16T14:43:33;21.90;64.10
45868;DHT22;31582;45.490;7.860;2022-10-16T14:46:01;21.80;64.90
45868;DHT22;31582;45.490;7.860;2022-10-16T14:48:28;21.80;63.80
45868;DHT22;31582;45.490;7.860;2022-10-16T14:50:55;21.70;64.10
45868;DHT22;31582;45.490;7.860;2022-10-16T14:53:22;21.70;64.10
45868;DHT22;31582;45.490;7.860;2022-10-16T14:55:49;21.70;64.70
45868;DHT22;31582;45.490;7.860;2022-10-16T14:58:16;21.70;63.50
45868;DHT22;31582;45.490;7.860;2022-10-16T15:00:44;21.60;63.50
45868;DHT22;31582;45.490;7.860;2022-10-16T15:03:10;21.60;64.10
45868;DHT22;31582;45.490;7.860;2022-10-16T15:05:37;21.70;65.00
45868;DHT22;31582;45.490;7.860;2022-10-16T15:08:04;21.70;64.20
45868;DHT22;31582;45.490;7.860;2022-10-16T15:10:31;21.60;64.90
45868;DHT22;31582;45.490;7.860;2022-10-16T15:12:59;21.60;65.10
45868;DHT22;31582;45.490;7.860;2022-10-16T15:17:56;21.70;65.70
45868;DHT22;31582;45.490;7.860;2022-10-16T15:20:24;21.70;65.70
45868;DHT22;31582;45.490;7.860;2022-10-16T15:22:51;21.60;65.50
45868;DHT22;31582;45.490;7.860;2022-10-16T15:25:31;21.60;66.60
45868;DHT22;31582;45.490;7.860;2022-10-16T15:27:59;21.60;65.80
45868;DHT22;31582;45.490;7.860;2022-10-16T15:30:26;21.60;66.10
45868;DHT22;31582;45.490;7.860;2022-10-16T15:32:53;21.60;66.70
45868;DHT22;31582;45.490;7.860;2022-10-16T15:35:20;21.60;67.30
45868;DHT22;31582;45.490;7.860;2022-10-16T15:37:47;21.60;66.90
45868;DHT22;31582;45.490;7.860;2022-10-16T15:40:15;21.50;65.40
45868;DHT22;31582;45.490;7.860;2022-10-16T15:42:42;21.40;67.20
45868;DHT22;31582;45.490;7.860;2022-10-16T15:45:09;21.40;67.60
45868;DHT22;31582;45.490;7.860;2022-10-16T15:47:36;21.40;67.20
45868;DHT22;31582;45.490;7.860;2022-10-16T15:50:05;21.40;69.50
45868;DHT22;31582;45.490;7.860;2022-10-16T15:52:33;21.30;70.50
45868;DHT22;31582;45.490;7.860;2022-10-16T15:55:00;21.30;70.20
45868;DHT22;31582;45.490;7.860;2022-10-16T15:57:30;21.30;70.60
45868;DHT22;31582;45.490;7.860;2022-10-16T15:59:56;21.20;71.60
45868;DHT22;31582;45.490;7.860;2022-10-16T16:02:23;21.20;72.50
45868;DHT22;31582;45.490;7.860;2022-10-16T16:04:53;21.10;72.70
45868;DHT22;31582;45.490;7.860;2022-10-16T16:07:19;21.10;73.40
45868;DHT22;31582;45.490;7.860;2022-10-16T16:09:46;21.00;73.30
45868;DHT22;31582;45.490;7.860;2022-10-16T16:12:13;21.00;73.90
45868;DHT22;31582;45.490;7.860;2022-10-16T16:14:40;21.00;75.40
45868;DHT22;31582;45.490;7.860;2022-10-16T16:17:07;20.90;76.50
45868;DHT22;31582;45.490;7.860;2022-10-16T16:19:34;20.90;77.40
45868;DHT22;31582;45.490;7.860;2022-10-16T16:22:01;20.90;78.50
45868;DHT22;31582;45.490;7.860;2022-10-16T16:24:27;20.90;79.00
45868;DHT22;31582;45.490;7.860;2022-10-16T16:26:54;20.80;79.60
45868;DHT22;31582;45.490;7.860;2022-10-16T16:29:21;20.60;82.20
45868;DHT22;31582;45.490;7.860;2022-10-16T16:31:48;20.50;83.70
45868;DHT22;31582;45.490;7.860;2022-10-16T16:34:14;20.40;83.70
45868;DHT22;31582;45.490;7.860;2022-10-16T16:36:41;20.30;84.80
45868;DHT22;31582;45.490;7.860;2022-10-16T16:39:08;20.20;84.80
45868;DHT22;31582;45.490;7.860;2022-10-16T16:41:35;20.10;85.00
45868;DHT22;31582;45.490;7.860;2022-10-16T16:44:05;20.10;84.70
45868;DHT22;31582;45.490;7.860;2022-10-16T16:46:33;20.10;84.50
45868;DHT22;31582;45.490;7.860;2022-10-16T16:49:00;20.00;84.60
45868;DHT22;31582;45.490;7.860;2022-10-16T16:51:27;20.00;84.70
45868;DHT22;31582;45.490;7.860;2022-10-16T16:53:54;19.80;84.40
45868;DHT22;31582;45.490;7.860;2022-10-16T16:56:21;19.80;84.80
45868;DHT22;31582;45.490;7.860;2022-10-16T16:58:49;19.60;85.10
45868;DHT22;31582;45.490;7.860;2022-10-16T17:01:16;19.50;85.00
45868;DHT22;31582;45.490;7.860;2022-10-16T17:03:47;19.40;85.50
45868;DHT22;31582;45.490;7.860;2022-10-16T17:06:17;19.30;86.20
45868;DHT22;31582;45.490;7.860;2022-10-16T17:08:47;19.30;86.30
45868;DHT22;31582;45.490;7.860;2022-10-16T17:11:14;19.20;87.00
45868;DHT22;31582;45.490;7.860;2022-10-16T17:13:42;19.00;88.00
45868;DHT22;31582;45.490;7.860;2022-10-16T17:16:09;18.90;88.10
45868;DHT22;31582;45.490;7.860;2022-10-16T17:18:36;18.90;89.50
45868;DHT22;31582;45.490;7.860;2022-10-16T17:21:03;18.80;88.40
45868;DHT22;31582;45.490;7.860;2022-10-16T17:23:31;18.80;89.30
45868;DHT22;31582;45.490;7.860;2022-10-16T17:26:08;18.80;89.30
45868;DHT22;31582;45.490;7.860;2022-10-16T17:28:35;18.70;89.40
45868;DHT22;31582;45.490;7.860;2022-10-16T17:31:08;18.70;89.90
45868;DHT22;31582;45.490;7.860;2022-10-16T17:33:40;18.60;90.30
45868;DHT22;31582;45.490;7.860;2022-10-16T17:36:07;18.50;90.40